createdAt,value
2018-09-11T00:00:06.292Z,51.60
2018-09-11T00:01:06.763Z,51.59
2018-09-11T00:02:07.237Z,51.47
2018-09-11T00:03:07.705Z,51.33
2018-09-11T00:04:08.173Z,51.21
2018-09-11T00:05:08.644Z,51.08
2018-09-11T00:06:09.115Z,51.02
2018-09-11T00:07:09.588Z,50.95
2018-09-11T00:08:10.057Z,50.93
2018-09-11T00:09:10.527Z,50.89
2018-09-11T00:10:11.000Z,50.84
2018-09-11T00:11:11.471Z,50.81
2018-09-11T00:12:11.940Z,50.80
2018-09-11T00:13:12.412Z,50.71
2018-09-11T00:14:12.885Z,50.70
2018-09-11T00:15:13.359Z,50.65
2018-09-11T00:16:13.828Z,50.63
2018-09-11T00:17:14.303Z,50.59
2018-09-11T00:18:14.772Z,50.58
2018-09-11T00:19:15.244Z,50.55
2018-09-11T00:20:15.720Z,50.53
2018-09-11T00:21:16.191Z,50.50
2018-09-11T00:22:16.667Z,50.50
2018-09-11T00:23:17.136Z,50.46
2018-09-11T00:24:17.611Z,50.39
2018-09-11T00:25:18.083Z,50.29
2018-09-11T00:26:18.558Z,50.17
2018-09-11T00:27:19.031Z,50.07
2018-09-11T00:28:19.506Z,50.00
2018-09-11T00:29:19.980Z,49.99
2018-09-11T00:30:20.453Z,50.00
2018-09-11T00:31:20.929Z,50.00
2018-09-11T00:32:21.399Z,50.04
2018-09-11T00:33:21.875Z,50.03
2018-09-11T00:34:22.349Z,50.06
2018-09-11T00:35:22.823Z,50.08
2018-09-11T00:36:23.297Z,50.12
2018-09-11T00:37:23.770Z,50.16
2018-09-11T00:38:24.244Z,50.20
2018-09-11T00:39:24.718Z,50.23
2018-09-11T00:40:25.191Z,50.30
2018-09-11T00:41:25.665Z,50.36
2018-09-11T00:42:26.139Z,50.43
2018-09-11T00:43:26.611Z,50.57
2018-09-11T00:44:27.085Z,50.70
2018-09-11T00:45:27.559Z,50.86
2018-09-11T00:46:28.029Z,51.02
2018-09-11T00:47:28.504Z,51.10
2018-09-11T00:48:28.975Z,51.21
2018-09-11T00:49:29.447Z,51.29
2018-09-11T00:50:29.921Z,51.35
2018-09-11T00:51:30.392Z,51.43
2018-09-11T00:52:30.863Z,51.47
2018-09-11T00:53:31.335Z,51.49
2018-09-11T00:54:31.807Z,51.53
2018-09-11T00:55:32.278Z,51.57
2018-09-11T00:56:32.752Z,51.67
2018-09-11T00:57:33.221Z,51.76
2018-09-11T00:58:33.691Z,51.92
2018-09-11T00:59:34.160Z,52.08
2018-09-11T01:00:34.633Z,52.19
2018-09-11T01:01:35.106Z,52.24
2018-09-11T01:02:35.572Z,52.27
2018-09-11T01:03:36.044Z,52.25
2018-09-11T01:04:36.511Z,52.19
2018-09-11T01:05:36.982Z,52.22
2018-09-11T01:06:37.452Z,52.23
2018-09-11T01:07:37.922Z,52.14
2018-09-11T01:08:38.392Z,52.07
2018-09-11T01:09:38.861Z,52.00
2018-09-11T01:10:39.336Z,51.93
2018-09-11T01:11:39.806Z,51.80
2018-09-11T01:12:40.276Z,51.74
2018-09-11T01:13:40.758Z,51.62
2018-09-11T01:14:41.214Z,51.50
2018-09-11T01:15:41.684Z,51.38
2018-09-11T01:16:42.155Z,51.28
2018-09-11T01:17:42.626Z,51.18
2018-09-11T01:18:43.097Z,51.10
2018-09-11T01:19:43.567Z,51.02
2018-09-11T01:20:44.038Z,50.97
2018-09-11T01:21:44.508Z,50.89
2018-09-11T01:22:44.981Z,50.83
2018-09-11T01:23:45.452Z,50.79
2018-09-11T01:24:45.924Z,50.75
2018-09-11T01:25:46.394Z,50.69
2018-09-11T01:26:46.867Z,50.66
2018-09-11T01:27:47.339Z,50.63
2018-09-11T01:28:47.812Z,50.63
2018-09-11T01:29:48.283Z,50.56
2018-09-11T01:30:48.756Z,50.52
2018-09-11T01:31:49.231Z,50.50
2018-09-11T01:32:49.702Z,50.43
2018-09-11T01:33:50.176Z,50.42
2018-09-11T01:34:50.649Z,50.34
2018-09-11T01:35:51.119Z,50.33
2018-09-11T01:36:51.593Z,50.32
2018-09-11T01:37:52.069Z,50.33
2018-09-11T01:38:52.540Z,50.35
2018-09-11T01:39:53.016Z,50.34
2018-09-11T01:40:53.494Z,50.39
2018-09-11T01:41:53.961Z,50.46
2018-09-11T01:42:54.439Z,50.55
2018-09-11T01:43:54.913Z,50.67
2018-09-11T01:44:55.386Z,50.71
2018-09-11T01:45:55.860Z,50.78
2018-09-11T01:46:56.332Z,50.88
2018-09-11T01:47:56.807Z,50.94
2018-09-11T01:48:57.279Z,51.04
2018-09-11T01:49:57.753Z,51.13
2018-09-11T01:50:58.227Z,51.17
2018-09-11T01:51:58.702Z,51.22
2018-09-11T01:52:59.171Z,51.33
2018-09-11T01:53:59.648Z,51.37
2018-09-11T01:55:00.120Z,51.46
2018-09-11T01:56:00.591Z,51.59
2018-09-11T01:57:01.063Z,51.66
2018-09-11T01:58:01.537Z,51.79
2018-09-11T01:59:02.008Z,51.88
2018-09-11T02:00:02.484Z,52.00
2018-09-11T02:01:02.953Z,52.03
2018-09-11T02:02:03.478Z,52.00
2018-09-11T02:03:03.897Z,51.94
2018-09-11T02:04:04.369Z,51.87
2018-09-11T02:05:04.838Z,51.86
2018-09-11T02:06:05.310Z,51.87
2018-09-11T02:07:05.781Z,51.89
2018-09-11T02:08:06.254Z,51.87
2018-09-11T02:09:06.720Z,51.84
2018-09-11T02:10:07.192Z,51.79
2018-09-11T02:11:07.666Z,51.75
2018-09-11T02:12:08.132Z,51.71
2018-09-11T02:13:08.603Z,51.65
2018-09-11T02:14:09.073Z,51.64
2018-09-11T02:15:09.544Z,51.59
2018-09-11T02:16:10.019Z,51.44
2018-09-11T02:17:10.486Z,51.41
2018-09-11T02:18:10.956Z,51.38
2018-09-11T02:19:11.425Z,51.29
2018-09-11T02:20:11.894Z,51.24
2018-09-11T02:21:12.364Z,51.13
2018-09-11T02:22:12.840Z,50.90
2018-09-11T02:23:13.306Z,50.76
2018-09-11T02:24:13.776Z,50.61
2018-09-11T02:25:14.245Z,50.48
2018-09-11T02:26:14.716Z,50.42
2018-09-11T02:27:15.187Z,50.37
2018-09-11T02:28:15.658Z,50.40
2018-09-11T02:29:16.129Z,50.38
2018-09-11T02:30:16.602Z,50.36
2018-09-11T02:31:17.075Z,50.38
2018-09-11T02:32:17.546Z,50.40
2018-09-11T02:33:18.015Z,50.39
2018-09-11T02:34:18.487Z,50.37
2018-09-11T02:35:18.959Z,50.41
2018-09-11T02:36:19.430Z,50.41
2018-09-11T02:37:19.903Z,50.38
2018-09-11T02:38:20.389Z,50.42
2018-09-11T02:39:20.857Z,50.41
2018-09-11T02:40:21.321Z,50.40
2018-09-11T02:41:21.791Z,50.38
2018-09-11T02:42:22.268Z,50.40
2018-09-11T02:43:22.740Z,50.39
2018-09-11T02:44:23.213Z,50.38
2018-09-11T02:45:23.686Z,50.42
2018-09-11T02:46:24.156Z,50.41
2018-09-11T02:47:24.631Z,50.40
2018-09-11T02:48:25.106Z,50.38
2018-09-11T02:49:25.576Z,50.40
2018-09-11T02:50:26.054Z,50.45
2018-09-11T02:51:26.525Z,50.50
2018-09-11T02:52:27.000Z,50.57
2018-09-11T02:53:27.473Z,50.64
2018-09-11T02:54:27.946Z,50.71
2018-09-11T02:55:28.420Z,50.76
2018-09-11T02:56:28.897Z,50.85
2018-09-11T02:57:29.365Z,50.90
2018-09-11T02:58:29.841Z,50.93
2018-09-11T02:59:30.313Z,50.95
2018-09-11T03:00:30.789Z,51.01
2018-09-11T03:01:31.262Z,51.09
2018-09-11T03:02:31.733Z,51.17
2018-09-11T03:03:32.205Z,51.25
2018-09-11T03:04:32.679Z,51.34
2018-09-11T03:05:33.149Z,51.43
2018-09-11T03:06:33.622Z,51.52
2018-09-11T03:07:34.094Z,51.56
2018-09-11T03:08:34.566Z,51.58
2018-09-11T03:09:35.039Z,51.63
2018-09-11T03:10:35.509Z,51.64
2018-09-11T03:11:35.980Z,51.67
2018-09-11T03:12:36.454Z,51.74
2018-09-11T03:13:36.924Z,51.84
2018-09-11T03:14:37.394Z,51.94
2018-09-11T03:15:37.866Z,52.00
2018-09-11T03:16:38.334Z,52.04
2018-09-11T03:17:38.805Z,52.04
2018-09-11T03:18:39.279Z,52.00
2018-09-11T03:19:39.753Z,51.92
2018-09-11T03:20:40.218Z,51.85
2018-09-11T03:21:40.686Z,51.79
2018-09-11T03:22:41.157Z,51.67
2018-09-11T03:23:41.628Z,51.54
2018-09-11T03:24:42.315Z,51.44
2018-09-11T03:25:42.565Z,51.34
2018-09-11T03:26:43.039Z,51.21
2018-09-11T03:27:43.506Z,51.08
2018-09-11T03:28:43.976Z,50.91
2018-09-11T03:29:44.449Z,50.78
2018-09-11T03:30:44.917Z,50.69
2018-09-11T03:31:45.432Z,50.61
2018-09-11T03:32:45.859Z,50.47
2018-09-11T03:33:46.331Z,50.37
2018-09-11T03:34:46.799Z,50.32
2018-09-11T03:35:47.272Z,50.26
2018-09-11T03:36:47.744Z,50.19
2018-09-11T03:37:48.215Z,50.10
2018-09-11T03:38:48.684Z,50.02
2018-09-11T03:39:49.158Z,49.93
2018-09-11T03:40:49.628Z,49.85
2018-09-11T03:41:50.098Z,49.82
2018-09-11T03:42:50.571Z,49.78
2018-09-11T03:43:51.043Z,49.77
2018-09-11T03:44:51.517Z,49.72
2018-09-11T03:45:51.986Z,49.68
2018-09-11T03:46:52.461Z,49.67
2018-09-11T03:47:52.932Z,49.66
2018-09-11T03:48:53.405Z,49.70
2018-09-11T03:49:53.877Z,49.71
2018-09-11T03:50:54.350Z,49.72
2018-09-11T03:51:54.822Z,49.70
2018-09-11T03:52:55.296Z,49.67
2018-09-11T03:53:55.770Z,49.65
2018-09-11T03:54:56.242Z,49.67
2018-09-11T03:55:56.716Z,49.66
2018-09-11T03:56:57.190Z,49.67
2018-09-11T03:57:57.664Z,49.68
2018-09-11T03:58:58.139Z,49.68
2018-09-11T03:59:58.610Z,49.75
2018-09-11T04:00:59.089Z,49.78
2018-09-11T04:01:59.558Z,49.80
2018-09-11T04:03:00.030Z,49.89
2018-09-11T04:04:00.506Z,49.96
2018-09-11T04:05:00.981Z,50.01
2018-09-11T04:06:01.454Z,50.09
2018-09-11T04:07:01.926Z,50.15
2018-09-11T04:08:02.398Z,50.25
2018-09-11T04:09:02.871Z,50.30
2018-09-11T04:10:03.347Z,50.39
2018-09-11T04:11:03.817Z,50.45
2018-09-11T04:12:04.293Z,50.57
2018-09-11T04:13:04.763Z,50.65
2018-09-11T04:14:05.235Z,50.77
2018-09-11T04:15:05.706Z,50.90
2018-09-11T04:16:06.178Z,51.00
2018-09-11T04:17:06.651Z,51.04
2018-09-11T04:18:07.124Z,51.08
2018-09-11T04:19:07.594Z,51.11
2018-09-11T04:20:08.066Z,51.14
2018-09-11T04:21:08.539Z,51.23
2018-09-11T04:22:09.005Z,51.32
2018-09-11T04:23:09.478Z,51.41
2018-09-11T04:24:09.950Z,51.52
2018-09-11T04:25:10.422Z,51.60
2018-09-11T04:26:10.889Z,51.62
2018-09-11T04:27:11.360Z,51.62
2018-09-11T04:28:11.830Z,51.57
2018-09-11T04:29:12.303Z,51.51
2018-09-11T04:30:12.769Z,51.45
2018-09-11T04:31:13.241Z,51.38
2018-09-11T04:32:13.711Z,51.29
2018-09-11T04:33:14.178Z,51.20
2018-09-11T04:34:14.650Z,51.09
2018-09-11T04:35:15.123Z,50.99
2018-09-11T04:36:15.639Z,50.79
2018-09-11T04:37:16.060Z,50.64
2018-09-11T04:38:16.531Z,50.52
2018-09-11T04:39:17.000Z,50.42
2018-09-11T04:40:17.471Z,50.32
2018-09-11T04:41:17.942Z,50.26
2018-09-11T04:42:18.410Z,50.17
2018-09-11T04:43:18.880Z,50.13
2018-09-11T04:44:19.354Z,50.08
2018-09-11T04:45:19.824Z,50.05
2018-09-11T04:46:20.296Z,49.99
2018-09-11T04:47:20.765Z,49.96
2018-09-11T04:48:21.236Z,49.92
2018-09-11T04:49:21.706Z,49.87
2018-09-11T04:50:22.179Z,49.82
2018-09-11T04:51:22.649Z,49.79
2018-09-11T04:52:23.121Z,49.73
2018-09-11T04:53:23.596Z,49.74
2018-09-11T04:54:24.066Z,49.71
2018-09-11T04:55:24.540Z,49.69
2018-09-11T04:56:25.009Z,49.63
2018-09-11T04:57:25.480Z,49.61
2018-09-11T04:58:25.952Z,49.63
2018-09-11T04:59:26.425Z,49.68
2018-09-11T05:00:26.907Z,49.69
2018-09-11T05:01:27.372Z,49.71
2018-09-11T05:02:27.844Z,49.73
2018-09-11T05:03:28.317Z,49.73
2018-09-11T05:04:28.792Z,49.77
2018-09-11T05:05:29.286Z,49.80
2018-09-11T05:06:29.737Z,49.78
2018-09-11T05:07:30.213Z,49.80
2018-09-11T05:08:30.737Z,49.83
2018-09-11T05:09:31.159Z,49.85
2018-09-11T05:10:31.633Z,49.88
2018-09-11T05:11:32.109Z,49.91
2018-09-11T05:12:32.580Z,49.98
2018-09-11T05:13:33.055Z,50.05
2018-09-11T05:14:33.527Z,50.13
2018-09-11T05:15:34.002Z,50.20
2018-09-11T05:16:34.473Z,50.24
2018-09-11T05:17:34.949Z,50.25
2018-09-11T05:18:35.421Z,50.27
2018-09-11T05:19:35.891Z,50.33
2018-09-11T05:20:36.365Z,50.38
2018-09-11T05:21:36.840Z,50.48
2018-09-11T05:22:37.311Z,50.56
2018-09-11T05:23:37.784Z,50.64
2018-09-11T05:24:38.255Z,50.72
2018-09-11T05:25:38.731Z,50.80
2018-09-11T05:26:39.198Z,50.89
2018-09-11T05:27:39.671Z,50.94
2018-09-11T05:28:40.144Z,50.96
2018-09-11T05:29:40.616Z,51.01
2018-09-11T05:30:41.085Z,51.08
2018-09-11T05:31:41.556Z,51.12
2018-09-11T05:32:42.028Z,51.14
2018-09-11T05:33:42.555Z,51.13
2018-09-11T05:34:42.967Z,51.11
2018-09-11T05:35:43.438Z,51.04
2018-09-11T05:36:43.912Z,50.97
2018-09-11T05:37:44.379Z,50.91
2018-09-11T05:38:44.849Z,50.84
2018-09-11T05:39:45.320Z,50.69
2018-09-11T05:40:45.789Z,50.53
2018-09-11T05:41:46.261Z,50.41
2018-09-11T05:42:46.729Z,50.27
2018-09-11T05:43:47.202Z,50.16
2018-09-11T05:44:47.670Z,50.04
2018-09-11T05:45:48.143Z,49.92
2018-09-11T05:46:48.610Z,49.73
2018-09-11T05:47:49.083Z,49.62
2018-09-11T05:48:49.554Z,49.49
2018-09-11T05:49:50.025Z,49.33
2018-09-11T05:50:50.495Z,49.25
2018-09-11T05:51:50.966Z,49.21
2018-09-11T05:52:51.437Z,49.08
2018-09-11T05:53:51.908Z,48.97
2018-09-11T05:54:52.379Z,48.92
2018-09-11T05:55:52.849Z,48.83
2018-09-11T05:56:53.321Z,48.76
2018-09-11T05:57:53.793Z,48.73
2018-09-11T05:58:54.264Z,48.67
2018-09-11T05:59:54.736Z,48.59
2018-09-11T06:00:55.212Z,48.51
2018-09-11T06:01:55.680Z,48.44
2018-09-11T06:02:56.153Z,48.38
2018-09-11T06:03:56.626Z,48.33
2018-09-11T06:04:57.100Z,48.29
2018-09-11T06:05:57.571Z,48.24
2018-09-11T06:06:58.042Z,48.21
2018-09-11T06:07:58.517Z,48.15
2018-09-11T06:08:58.991Z,48.09
2018-09-11T06:09:59.462Z,48.04
2018-09-11T06:10:59.940Z,47.99
2018-09-11T06:12:00.411Z,47.92
2018-09-11T06:13:00.884Z,47.91
2018-09-11T06:14:01.361Z,47.94
2018-09-11T06:15:01.831Z,47.96
2018-09-11T06:16:02.322Z,48.01
2018-09-11T06:17:02.779Z,48.03
2018-09-11T06:18:03.254Z,48.07
2018-09-11T06:19:03.782Z,48.08
2018-09-11T06:20:04.204Z,48.12
2018-09-11T06:21:04.679Z,48.13
2018-09-11T06:22:05.152Z,48.14
2018-09-11T06:23:05.624Z,48.17
2018-09-11T06:24:06.097Z,48.20
2018-09-11T06:25:06.572Z,48.23
2018-09-11T06:26:07.046Z,48.26
2018-09-11T06:27:07.520Z,48.28
2018-09-11T06:28:07.991Z,48.33
2018-09-11T06:29:08.477Z,48.38
2018-09-11T06:30:08.938Z,48.43
2018-09-11T06:31:09.409Z,48.46
2018-09-11T06:32:09.884Z,48.46
2018-09-11T06:33:10.358Z,48.48
2018-09-11T06:34:10.829Z,48.50
2018-09-11T06:35:11.301Z,48.48
2018-09-11T06:36:11.774Z,48.49
2018-09-11T06:37:12.247Z,48.46
2018-09-11T06:38:12.719Z,48.46
2018-09-11T06:39:13.193Z,48.41
2018-09-11T06:40:13.660Z,48.37
2018-09-11T06:41:14.158Z,48.36
2018-09-11T06:42:14.604Z,48.33
2018-09-11T06:43:15.074Z,48.41
2018-09-11T06:44:15.545Z,48.44
2018-09-11T06:45:16.018Z,48.45
2018-09-11T06:46:16.487Z,48.43
2018-09-11T06:47:16.957Z,48.40
2018-09-11T06:48:17.427Z,48.35
2018-09-11T06:49:17.908Z,48.29
2018-09-11T06:50:18.370Z,48.23
2018-09-11T06:51:18.842Z,48.15
2018-09-11T06:52:19.312Z,48.06
2018-09-11T06:53:19.781Z,47.89
2018-09-11T06:54:20.254Z,47.85
2018-09-11T06:55:20.724Z,47.77
2018-09-11T06:56:21.195Z,47.66
2018-09-11T06:57:21.666Z,47.56
2018-09-11T06:58:22.135Z,47.41
2018-09-11T06:59:22.607Z,47.28
2018-09-11T07:00:23.078Z,47.16
2018-09-11T07:01:23.548Z,47.06
2018-09-11T07:02:24.021Z,46.98
2018-09-11T07:03:24.491Z,46.88
2018-09-11T07:04:24.963Z,46.78
2018-09-11T07:05:25.437Z,46.70
2018-09-11T07:06:25.909Z,46.64
2018-09-11T07:07:26.383Z,46.58
2018-09-11T07:08:26.872Z,46.53
2018-09-11T07:09:27.328Z,46.48
2018-09-11T07:10:27.797Z,46.44
2018-09-11T07:12:28.742Z,46.34
2018-09-11T07:13:29.218Z,46.31
2018-09-11T07:14:29.758Z,46.24
2018-09-11T07:15:30.164Z,46.16
2018-09-11T07:16:30.638Z,46.07
2018-09-11T07:17:31.111Z,46.05
2018-09-11T07:18:31.586Z,46.00
2018-09-11T07:19:32.143Z,45.95
2018-09-11T07:20:32.568Z,45.91
2018-09-11T07:21:33.008Z,45.94
2018-09-11T07:22:33.493Z,45.99
2018-09-11T07:23:33.960Z,46.03
2018-09-11T07:24:34.432Z,46.08
2018-09-11T07:25:34.907Z,46.14
2018-09-11T07:26:35.383Z,46.13
2018-09-11T07:27:35.860Z,46.15
2018-09-11T07:28:36.331Z,46.16
2018-09-11T07:29:36.811Z,46.18
2018-09-11T07:30:37.283Z,46.24
2018-09-11T07:31:37.755Z,46.22
2018-09-11T07:32:38.230Z,46.25
2018-09-11T07:33:38.704Z,46.30
2018-09-11T07:34:39.179Z,46.33
2018-09-11T07:35:39.652Z,46.38
2018-09-11T07:36:40.134Z,46.42
2018-09-11T07:37:40.608Z,46.45
2018-09-11T07:38:41.074Z,46.50
2018-09-11T07:39:41.549Z,46.54
2018-09-11T07:40:42.057Z,46.58
2018-09-11T07:41:42.495Z,46.59
2018-09-11T07:42:42.971Z,46.60
2018-09-11T07:43:43.442Z,46.58
2018-09-11T07:44:43.925Z,46.56
2018-09-11T07:45:44.387Z,46.53
2018-09-11T07:46:44.860Z,46.54
2018-09-11T07:47:45.334Z,46.51
2018-09-11T07:48:45.805Z,46.46
2018-09-11T07:49:46.277Z,46.36
2018-09-11T07:50:46.750Z,46.27
2018-09-11T07:51:47.222Z,46.21
2018-09-11T07:52:47.718Z,46.14
2018-09-11T07:53:48.167Z,46.08
2018-09-11T07:54:48.641Z,46.02
2018-09-11T07:55:49.114Z,45.96
2018-09-11T07:56:49.586Z,45.90
2018-09-11T07:57:50.059Z,45.83
2018-09-11T07:58:50.532Z,45.75
2018-09-11T07:59:51.004Z,45.71
2018-09-11T08:00:51.475Z,45.67
2018-09-11T08:01:51.951Z,45.72
2018-09-11T08:02:52.423Z,45.77
2018-09-11T08:03:52.896Z,45.77
2018-09-11T08:04:53.368Z,45.72
2018-09-11T08:05:53.839Z,45.64
2018-09-11T08:06:54.313Z,45.58
2018-09-11T08:07:54.784Z,45.50
2018-09-11T08:08:55.259Z,45.39
2018-09-11T08:09:55.733Z,45.21
2018-09-11T08:10:56.210Z,44.97
2018-09-11T08:11:56.722Z,44.65
2018-09-11T08:12:57.157Z,44.29
2018-09-11T08:13:57.635Z,43.92
2018-09-11T08:14:58.108Z,43.55
2018-09-11T08:15:58.583Z,43.18
2018-09-11T08:16:59.061Z,42.79
2018-09-11T08:17:59.541Z,42.44
2018-09-11T08:19:00.019Z,42.08
2018-09-11T08:20:00.571Z,41.69
2018-09-11T08:21:00.978Z,41.32
2018-09-11T08:22:01.452Z,40.97
2018-09-11T08:23:01.931Z,40.60
2018-09-11T08:24:02.411Z,40.31
2018-09-11T08:25:02.894Z,40.10
2018-09-11T08:26:03.373Z,39.90
2018-09-11T08:27:03.853Z,39.81
2018-09-11T08:28:04.333Z,39.70
2018-09-11T08:29:04.813Z,39.61
2018-09-11T08:30:05.295Z,39.51
2018-09-11T08:31:05.773Z,39.40
2018-09-11T08:32:06.254Z,39.36
2018-09-11T08:33:06.735Z,39.31
2018-09-11T08:34:07.215Z,39.23
2018-09-11T08:35:07.696Z,39.25
2018-09-11T08:36:08.174Z,39.22
2018-09-11T08:37:08.653Z,39.30
2018-09-11T08:38:09.136Z,39.31
2018-09-11T08:39:09.616Z,39.38
2018-09-11T08:40:10.095Z,39.48
2018-09-11T08:41:10.639Z,39.58
2018-09-11T08:42:11.053Z,39.72
2018-09-11T08:43:11.530Z,39.87
2018-09-11T08:44:12.008Z,40.03
2018-09-11T08:45:12.486Z,40.16
2018-09-11T08:46:12.963Z,40.29
2018-09-11T08:47:13.442Z,40.40
2018-09-11T08:48:13.917Z,40.51
2018-09-11T08:49:14.397Z,40.57
2018-09-11T08:50:14.873Z,40.64
2018-09-11T08:51:15.351Z,40.69
2018-09-11T08:52:15.889Z,40.79
2018-09-11T08:53:16.306Z,40.90
2018-09-11T08:54:16.781Z,41.03
2018-09-11T08:55:17.257Z,41.16
2018-09-11T08:56:17.732Z,41.30
2018-09-11T08:57:18.207Z,41.42
2018-09-11T08:58:18.683Z,41.56
2018-09-11T08:59:19.161Z,41.68
2018-09-11T09:00:19.635Z,41.79
2018-09-11T09:01:20.111Z,41.89
2018-09-11T09:02:20.587Z,42.00
2018-09-11T09:03:21.059Z,42.08
2018-09-11T09:04:21.533Z,42.15
2018-09-11T09:05:22.011Z,42.21
2018-09-11T09:06:22.482Z,42.27
2018-09-11T09:07:22.959Z,42.31
2018-09-11T09:08:23.432Z,42.36
2018-09-11T09:09:23.904Z,42.38
2018-09-11T09:10:24.383Z,42.40
2018-09-11T09:11:24.852Z,42.41
2018-09-11T09:12:25.333Z,42.41
2018-09-11T09:13:25.800Z,42.43
2018-09-11T09:14:26.279Z,42.45
2018-09-11T09:15:26.797Z,42.44
2018-09-11T09:16:27.221Z,42.43
2018-09-11T09:17:27.694Z,42.38
2018-09-11T09:18:28.168Z,42.30
2018-09-11T09:19:28.640Z,42.21
2018-09-11T09:20:29.114Z,42.11
2018-09-11T09:21:29.588Z,42.00
2018-09-11T09:22:30.061Z,41.86
2018-09-11T09:23:30.532Z,41.75
2018-09-11T09:24:31.005Z,41.55
2018-09-11T09:25:31.478Z,41.38
2018-09-11T09:26:31.951Z,41.23
2018-09-11T09:27:32.452Z,41.07
2018-09-11T09:28:32.896Z,40.93
2018-09-11T09:29:33.369Z,40.81
2018-09-11T09:30:33.843Z,40.72
2018-09-11T09:31:34.315Z,40.63
2018-09-11T09:32:34.786Z,40.58
2018-09-11T09:33:35.258Z,40.55
2018-09-11T09:34:35.732Z,40.54
2018-09-11T09:35:36.204Z,40.52
2018-09-11T09:36:36.713Z,40.50
2018-09-11T09:37:37.148Z,40.47
2018-09-11T09:38:37.620Z,40.44
2018-09-11T09:39:38.096Z,40.43
2018-09-11T09:40:38.563Z,40.45
2018-09-11T09:41:39.037Z,40.46
2018-09-11T09:42:39.513Z,40.47
2018-09-11T09:43:39.980Z,40.48
2018-09-11T09:44:40.452Z,40.49
2018-09-11T09:45:40.925Z,40.50
2018-09-11T09:46:41.399Z,40.50
2018-09-11T09:47:41.870Z,40.50
2018-09-11T09:48:42.358Z,40.49
2018-09-11T09:49:42.859Z,40.48
2018-09-11T09:50:43.357Z,40.45
2018-09-11T09:51:43.755Z,40.42
2018-09-11T09:52:44.228Z,40.39
2018-09-11T09:53:44.698Z,40.36
2018-09-11T09:54:45.170Z,40.32
2018-09-11T09:55:45.643Z,40.31
2018-09-11T09:56:46.114Z,40.30
2018-09-11T09:57:46.586Z,40.28
2018-09-11T09:58:47.057Z,40.29
2018-09-11T09:59:47.528Z,40.30
2018-09-11T10:00:48.001Z,40.30
2018-09-11T10:01:48.473Z,40.31
2018-09-11T10:02:48.943Z,40.31
2018-09-11T10:03:49.414Z,40.28
2018-09-11T10:04:49.895Z,40.28
2018-09-11T10:05:50.357Z,40.28
2018-09-11T10:06:50.832Z,40.28
2018-09-11T10:07:51.300Z,40.26
2018-09-11T10:08:51.770Z,40.26
2018-09-11T10:09:52.239Z,40.25
2018-09-11T10:10:52.714Z,40.24
2018-09-11T10:11:53.227Z,40.26
2018-09-11T10:12:53.652Z,40.35
2018-09-11T10:13:54.123Z,40.49
2018-09-11T10:14:54.597Z,40.61
2018-09-11T10:15:55.067Z,40.76
2018-09-11T10:16:55.537Z,40.91
2018-09-11T10:17:56.005Z,41.03
2018-09-11T10:18:56.477Z,41.14
2018-09-11T10:19:56.952Z,41.27
2018-09-11T10:20:57.418Z,41.36
2018-09-11T10:21:57.889Z,41.45
2018-09-11T10:22:58.361Z,41.59
2018-09-11T10:23:58.834Z,41.63
2018-09-11T10:24:59.303Z,41.71
2018-09-11T10:25:59.776Z,41.74
2018-09-11T10:27:00.247Z,41.78
2018-09-11T10:28:00.721Z,41.80
2018-09-11T10:29:01.195Z,41.81
2018-09-11T10:30:01.667Z,41.83
2018-09-11T10:31:02.141Z,41.85
2018-09-11T10:32:02.610Z,41.82
2018-09-11T10:33:03.083Z,41.78
2018-09-11T10:34:03.557Z,41.71
2018-09-11T10:35:04.029Z,41.66
2018-09-11T10:36:04.502Z,41.57
2018-09-11T10:37:04.977Z,41.51
2018-09-11T10:38:05.450Z,41.45
2018-09-11T10:39:05.926Z,41.39
2018-09-11T10:40:06.402Z,41.38
2018-09-11T10:41:06.911Z,41.35
2018-09-11T10:42:07.351Z,41.35
2018-09-11T10:43:07.824Z,41.36
2018-09-11T10:44:08.301Z,41.37
2018-09-11T10:45:08.774Z,41.37
2018-09-11T10:46:09.251Z,41.38
2018-09-11T10:47:09.727Z,41.39
2018-09-11T10:48:10.200Z,41.41
2018-09-11T10:49:10.676Z,41.42
2018-09-11T10:50:11.152Z,41.43
2018-09-11T10:51:11.629Z,41.46
2018-09-11T10:52:12.105Z,41.48
2018-09-11T10:53:12.575Z,41.52
2018-09-11T10:54:13.053Z,41.55
2018-09-11T10:55:13.528Z,41.63
2018-09-11T10:56:14.003Z,41.62
2018-09-11T10:57:14.482Z,41.65
2018-09-11T10:58:14.956Z,41.67
2018-09-11T10:59:15.429Z,41.67
2018-09-11T11:00:15.969Z,41.70
2018-09-11T11:01:16.379Z,41.71
2018-09-11T11:02:16.855Z,41.70
2018-09-11T11:03:17.332Z,41.68
2018-09-11T11:04:17.805Z,41.71
2018-09-11T11:05:18.278Z,41.70
2018-09-11T11:06:18.755Z,41.69
2018-09-11T11:07:19.230Z,41.68
2018-09-11T11:08:19.704Z,41.67
2018-09-11T11:09:20.177Z,41.69
2018-09-11T11:10:20.655Z,41.64
2018-09-11T11:11:21.133Z,41.63
2018-09-11T11:12:21.601Z,41.62
2018-09-11T11:13:22.077Z,41.60
2018-09-11T11:14:22.547Z,41.60
2018-09-11T11:15:23.023Z,41.58
2018-09-11T11:16:23.498Z,41.56
2018-09-11T11:17:23.973Z,41.54
2018-09-11T11:18:24.446Z,41.51
2018-09-11T11:19:24.920Z,41.48
2018-09-11T11:20:25.396Z,41.45
2018-09-11T11:21:25.866Z,41.42
2018-09-11T11:22:26.340Z,41.38
2018-09-11T11:23:26.813Z,41.35
2018-09-11T11:24:27.288Z,41.32
2018-09-11T11:25:27.761Z,41.29
2018-09-11T11:26:28.234Z,41.26
2018-09-11T11:27:28.708Z,41.23
2018-09-11T11:28:29.186Z,41.19
2018-09-11T11:29:29.656Z,41.18
2018-09-11T11:30:30.128Z,41.16
2018-09-11T11:31:30.602Z,41.13
2018-09-11T11:32:31.078Z,41.10
2018-09-11T11:33:31.550Z,41.08
2018-09-11T11:34:32.021Z,41.04
2018-09-11T11:35:32.494Z,41.00
2018-09-11T11:36:33.013Z,40.97
2018-09-11T11:37:33.441Z,40.93
2018-09-11T11:38:33.913Z,40.85
2018-09-11T11:39:34.385Z,40.84
2018-09-11T11:40:34.861Z,40.83
2018-09-11T11:41:35.365Z,40.82
2018-09-11T11:42:35.859Z,40.79
2018-09-11T11:43:36.279Z,40.81
2018-09-11T11:44:36.751Z,40.81
2018-09-11T11:45:37.226Z,40.79
2018-09-11T11:46:37.698Z,40.77
2018-09-11T11:47:38.174Z,40.72
2018-09-11T11:48:38.645Z,40.70
2018-09-11T11:49:39.117Z,40.66
2018-09-11T11:50:39.593Z,40.64
2018-09-11T11:51:40.065Z,40.62
2018-09-11T11:52:40.535Z,40.59
2018-09-11T11:53:41.009Z,40.56
2018-09-11T11:54:41.511Z,40.50
2018-09-11T11:55:41.953Z,40.46
2018-09-11T11:56:42.428Z,40.44
2018-09-11T11:57:42.897Z,40.45
2018-09-11T11:58:43.369Z,40.44
2018-09-11T11:59:43.843Z,40.42
2018-09-11T12:00:44.316Z,40.40
2018-09-11T12:01:44.787Z,40.39
2018-09-11T12:02:45.260Z,40.38
2018-09-11T12:03:45.735Z,40.37
2018-09-11T12:04:46.206Z,40.34
2018-09-11T12:05:46.683Z,40.33
2018-09-11T12:06:47.151Z,40.31
2018-09-11T12:07:47.685Z,40.29
2018-09-11T12:08:48.096Z,40.25
2018-09-11T12:09:48.568Z,40.24
2018-09-11T12:10:49.039Z,40.23
2018-09-11T12:11:49.520Z,40.24
2018-09-11T12:12:49.985Z,40.21
2018-09-11T12:13:50.458Z,40.19
2018-09-11T12:14:50.929Z,40.17
2018-09-11T12:15:51.402Z,40.18
2018-09-11T12:16:51.903Z,40.19
2018-09-11T12:17:52.351Z,40.17
2018-09-11T12:18:52.819Z,40.18
2018-09-11T12:19:53.291Z,40.17
2018-09-11T12:20:53.768Z,40.16
2018-09-11T12:21:54.237Z,40.14
2018-09-11T12:22:54.709Z,40.10
2018-09-11T12:23:55.184Z,40.08
2018-09-11T12:24:55.655Z,40.06
2018-09-11T12:25:56.128Z,40.05
2018-09-11T12:26:56.600Z,40.01
2018-09-11T12:27:57.072Z,39.98
2018-09-11T12:28:57.545Z,40.00
2018-09-11T12:29:58.017Z,40.00
2018-09-11T12:30:58.494Z,39.98
2018-09-11T12:31:58.961Z,39.97
2018-09-11T12:32:59.434Z,39.96
2018-09-11T12:33:59.905Z,39.96
2018-09-11T12:35:00.387Z,39.95
2018-09-11T12:36:00.851Z,39.93
2018-09-11T12:37:01.325Z,39.92
2018-09-11T12:38:01.878Z,39.92
2018-09-11T12:39:02.267Z,39.92
2018-09-11T12:40:02.741Z,39.92
2018-09-11T12:41:03.216Z,39.91
2018-09-11T12:42:03.684Z,39.90
2018-09-11T12:43:04.157Z,39.91
2018-09-11T12:44:04.630Z,39.92
2018-09-11T12:45:05.102Z,39.92
2018-09-11T12:46:05.773Z,39.92
2018-09-11T12:47:06.259Z,39.91
2018-09-11T12:48:06.886Z,39.87
2018-09-11T12:49:06.992Z,39.85
2018-09-11T12:50:07.466Z,39.85
2018-09-11T12:51:07.935Z,39.83
2018-09-11T12:52:08.408Z,39.81
2018-09-11T12:53:08.881Z,39.80
2018-09-11T12:54:09.354Z,39.80
2018-09-11T12:55:09.829Z,39.79
2018-09-11T12:56:10.298Z,39.79
2018-09-11T12:57:10.770Z,39.80
2018-09-11T12:58:11.243Z,39.82
2018-09-11T12:59:11.716Z,39.84